sensor_id;sensor_type;location;lat;lon;timestamp;pressure;altitude;pressure_sealevel;temperature;humidity
22862;BME280;11598;50.652;6.172;2023-04-01T00:02:37;94395.06;;;5.80;100.00
22862;BME280;11598;50.652;6.172;2023-04-01T00:12:38;94402.78;;;5.80;100.00
22862;BME280;11598;50.652;6.172;2023-04-01T00:22:38;94397.63;;;5.80;100.00
22862;BME280;11598;50.652;6.172;2023-04-01T00:32:39;94389.09;;;5.79;100.00
22862;BME280;11598;50.652;6.172;2023-04-01T00:42:39;94390.88;;;5.79;100.00
22862;BME280;11598;50.652;6.172;2023-04-01T00:52:40;94390.03;;;5.78;100.00
22862;BME280;11598;50.652;6.172;2023-04-01T01:02:45;94360.19;;;5.76;100.00
22862;BME280;11598;50.652;6.172;2023-04-01T01:23:41;94382.97;;;5.70;100.00
22862;BME280;11598;50.652;6.172;2023-04-01T01:33:59;94384.63;;;5.71;100.00
22862;BME280;11598;50.652;6.172;2023-04-01T01:44:05;94390.59;;;5.72;100.00
22862;BME280;11598;50.652;6.172;2023-04-01T01:54:12;94401.00;;;5.70;100.00
22862;BME280;11598;50.652;6.172;2023-04-01T02:04:13;94394.38;;;5.68;100.00
22862;BME280;11598;50.652;6.172;2023-04-01T02:14:17;94388.00;;;5.62;100.00
22862;BME280;11598;50.652;6.172;2023-04-01T02:24:21;94376.47;;;5.57;100.00
22862;BME280;11598;50.652;6.172;2023-04-01T02:34:24;94372.28;;;5.56;100.00
22862;BME280;11598;50.652;6.172;2023-04-01T02:44:25;94377.44;;;5.56;100.00
22862;BME280;11598;50.652;6.172;2023-04-01T02:54:25;94390.16;;;5.57;100.00
22862;BME280;11598;50.652;6.172;2023-04-01T03:04:26;94380.41;;;5.61;100.00
22862;BME280;11598;50.652;6.172;2023-04-01T03:14:26;94390.59;;;5.62;100.00
22862;BME280;11598;50.652;6.172;2023-04-01T03:24:27;94408.63;;;5.62;100.00
22862;BME280;11598;50.652;6.172;2023-04-01T03:34:27;94404.13;;;5.55;100.00
22862;BME280;11598;50.652;6.172;2023-04-01T03:44:31;94414.41;;;5.55;100.00
22862;BME280;11598;50.652;6.172;2023-04-01T03:54:32;94415.91;;;5.57;100.00
22862;BME280;11598;50.652;6.172;2023-04-01T04:04:33;94412.28;;;5.60;100.00
22862;BME280;11598;50.652;6.172;2023-04-01T04:14:34;94427.19;;;5.66;100.00
22862;BME280;11598;50.652;6.172;2023-04-01T04:24:35;94436.97;;;5.72;100.00
22862;BME280;11598;50.652;6.172;2023-04-01T04:34:36;94444.28;;;5.77;100.00
22862;BME280;11598;50.652;6.172;2023-04-01T04:44:36;94455.28;;;5.79;100.00
22862;BME280;11598;50.652;6.172;2023-04-01T04:54:36;94448.19;;;5.81;100.00
22862;BME280;11598;50.652;6.172;2023-04-01T05:04:37;94472.22;;;5.81;100.00
22862;BME280;11598;50.652;6.172;2023-04-01T05:14:37;94475.34;;;5.85;100.00
22862;BME280;11598;50.652;6.172;2023-04-01T05:24:38;94490.56;;;5.88;100.00
22862;BME280;11598;50.652;6.172;2023-04-01T05:34:38;94499.91;;;5.89;100.00
22862;BME280;11598;50.652;6.172;2023-04-01T05:44:39;94502.19;;;5.92;100.00
22862;BME280;11598;50.652;6.172;2023-04-01T05:54:39;94511.06;;;5.99;100.00
22862;BME280;11598;50.652;6.172;2023-04-01T06:04:40;94518.41;;;6.04;100.00
22862;BME280;11598;50.652;6.172;2023-04-01T06:45:48;94562.50;;;6.10;100.00
22862;BME280;11598;50.652;6.172;2023-04-01T06:56:04;94570.34;;;6.09;100.00
22862;BME280;11598;50.652;6.172;2023-04-01T07:06:16;94579.75;;;6.10;100.00
22862;BME280;11598;50.652;6.172;2023-04-01T07:17:30;94581.91;;;6.14;100.00
22862;BME280;11598;50.652;6.172;2023-04-01T07:26:59;94586.69;;;6.19;100.00
22862;BME280;11598;50.652;6.172;2023-04-01T07:47:18;94622.09;;;6.27;100.00
22862;BME280;11598;50.652;6.172;2023-04-01T07:57:27;94631.91;;;6.33;100.00
22862;BME280;11598;50.652;6.172;2023-04-01T08:39:22;94683.50;;;6.43;100.00
22862;BME280;11598;50.652;6.172;2023-04-01T09:41:30;94733.84;;;6.77;100.00
22862;BME280;11598;50.652;6.172;2023-04-01T09:51:53;94743.59;;;6.84;100.00
22862;BME280;11598;50.652;6.172;2023-04-01T11:45:21;94833.81;;;7.74;100.00
22862;BME280;11598;50.652;6.172;2023-04-01T11:55:53;94850.81;;;7.77;100.00
22862;BME280;11598;50.652;6.172;2023-04-01T12:06:16;94860.75;;;7.81;100.00
22862;BME280;11598;50.652;6.172;2023-04-01T12:16:47;94877.47;;;7.77;100.00
22862;BME280;11598;50.652;6.172;2023-04-01T13:18:39;94930.94;;;7.57;100.00
22862;BME280;11598;50.652;6.172;2023-04-01T13:29:06;94944.56;;;7.69;100.00
22862;BME280;11598;50.652;6.172;2023-04-01T13:39:40;94937.50;;;7.91;100.00
22862;BME280;11598;50.652;6.172;2023-04-01T14:10:43;94970.81;;;7.74;100.00
22862;BME280;11598;50.652;6.172;2023-04-01T14:21:16;94980.75;;;7.69;100.00
22862;BME280;11598;50.652;6.172;2023-04-01T14:52:13;94997.41;;;7.46;100.00
22862;BME280;11598;50.652;6.172;2023-04-01T15:43:47;95049.22;;;7.13;100.00
22862;BME280;11598;50.652;6.172;2023-04-01T16:14:28;95086.00;;;6.85;100.00
22862;BME280;11598;50.652;6.172;2023-04-01T16:55:17;95135.59;;;6.56;100.00
22862;BME280;11598;50.652;6.172;2023-04-01T17:05:20;95144.31;;;6.44;100.00
22862;BME280;11598;50.652;6.172;2023-04-01T17:46:23;95197.34;;;6.25;100.00
22862;BME280;11598;50.652;6.172;2023-04-01T18:38:37;95255.91;;;5.89;100.00
22862;BME280;11598;50.652;6.172;2023-04-01T18:48:42;95261.41;;;5.85;100.00
22862;BME280;11598;50.652;6.172;2023-04-01T18:58:50;95271.34;;;5.78;100.00
22862;BME280;11598;50.652;6.172;2023-04-01T19:08:53;95288.91;;;5.73;100.00
22862;BME280;11598;50.652;6.172;2023-04-01T19:19:13;95301.78;;;5.73;100.00
22862;BME280;11598;50.652;6.172;2023-04-01T19:50:15;95321.81;;;5.69;100.00
22862;BME280;11598;50.652;6.172;2023-04-01T20:00:43;95335.63;;;5.68;100.00
22862;BME280;11598;50.652;6.172;2023-04-01T20:21:06;95350.38;;;5.66;100.00
22862;BME280;11598;50.652;6.172;2023-04-01T20:31:23;95361.19;;;5.71;100.00
22862;BME280;11598;50.652;6.172;2023-04-01T20:41:33;95364.69;;;5.70;100.00
22862;BME280;11598;50.652;6.172;2023-04-01T20:51:50;95376.66;;;5.71;100.00
22862;BME280;11598;50.652;6.172;2023-04-01T21:23:19;95401.56;;;5.71;100.00
22862;BME280;11598;50.652;6.172;2023-04-01T21:54:22;95434.09;;;5.85;100.00
22862;BME280;11598;50.652;6.172;2023-04-01T22:25:14;95459.16;;;5.96;100.00
22862;BME280;11598;50.652;6.172;2023-04-01T22:55:50;95500.25;;;5.97;100.00
22862;BME280;11598;50.652;6.172;2023-04-01T23:05:56;95503.06;;;5.94;100.00
22862;BME280;11598;50.652;6.172;2023-04-01T23:15:57;95521.41;;;5.89;100.00
22862;BME280;11598;50.652;6.172;2023-04-01T23:26:17;95536.06;;;5.89;100.00
22862;BME280;11598;50.652;6.172;2023-04-01T23:36:21;95551.13;;;5.82;100.00
22862;BME280;11598;50.652;6.172;2023-04-01T23:46:22;95572.53;;;5.59;100.00
22862;BME280;11598;50.652;6.172;2023-04-01T23:56:23;95608.28;;;5.38;100.00
